createdAt,value
2022-12-18T00:01:07.196Z,35.53
2022-12-18T00:03:34.790Z,46.17
2022-12-18T00:06:01.685Z,40.67
2022-12-18T00:08:28.734Z,37.45
2022-12-18T00:10:55.466Z,35.53
2022-12-18T00:13:27.116Z,39.38
2022-12-18T00:15:56.564Z,47.70
2022-12-18T00:18:23.600Z,41.42
2022-12-18T00:20:50.323Z,36.17
2022-12-18T00:23:17.325Z,41.33
2022-12-18T00:25:44.046Z,34.45
2022-12-18T00:28:11.066Z,36.17
2022-12-18T00:30:37.760Z,39.47
2022-12-18T00:33:04.451Z,39.95
2022-12-18T00:35:31.182Z,37.08
2022-12-18T00:37:57.862Z,38.13
2022-12-18T00:40:24.537Z,41.80
2022-12-18T00:42:57.481Z,39.92
2022-12-18T00:45:30.904Z,36.60
2022-12-18T00:47:57.683Z,39.25
2022-12-18T00:50:25.038Z,35.92
2022-12-18T00:52:51.803Z,32.60
2022-12-18T00:55:18.642Z,34.28
2022-12-18T00:57:45.432Z,33.47
2022-12-18T01:00:13.948Z,36.90
2022-12-18T01:02:40.807Z,43.13
2022-12-18T01:05:08.325Z,37.97
2022-12-18T01:07:35.139Z,39.70
2022-12-18T01:10:01.848Z,37.05
2022-12-18T01:12:28.568Z,39.05
2022-12-18T01:14:55.273Z,32.63
2022-12-18T01:17:22.235Z,34.75
2022-12-18T01:19:48.928Z,40.00
2022-12-18T01:22:15.590Z,36.80
2022-12-18T01:24:42.278Z,35.63
2022-12-18T01:27:08.935Z,37.00
2022-12-18T01:29:35.834Z,34.30
2022-12-18T01:32:02.579Z,36.50
2022-12-18T01:34:29.432Z,37.45
2022-12-18T01:36:56.106Z,39.20
2022-12-18T01:39:22.907Z,39.45
2022-12-18T01:42:04.946Z,44.50
2022-12-18T01:45:05.739Z,38.80
2022-12-18T01:47:47.643Z,38.60
2022-12-18T01:50:19.423Z,36.15
2022-12-18T01:52:54.113Z,30.55
2022-12-18T01:55:23.473Z,31.60
2022-12-18T01:57:53.035Z,35.28
2022-12-18T02:00:20.679Z,34.72
2022-12-18T02:02:47.618Z,32.83
2022-12-18T02:05:19.766Z,34.63
2022-12-18T02:08:08.648Z,37.50
2022-12-18T02:11:09.601Z,33.15
2022-12-18T02:13:39.474Z,35.15
2022-12-18T02:16:11.998Z,36.70
2022-12-18T02:18:41.626Z,28.60
2022-12-18T02:21:31.387Z,31.23
2022-12-18T02:24:21.002Z,29.23
2022-12-18T02:26:58.567Z,29.67
2022-12-18T02:29:28.434Z,31.77
2022-12-18T02:31:57.527Z,34.47
2022-12-18T02:34:27.024Z,39.25
2022-12-18T02:36:53.715Z,29.27
2022-12-18T02:39:21.135Z,32.17
2022-12-18T02:41:48.201Z,33.60
2022-12-18T02:44:15.307Z,38.95
2022-12-18T02:46:44.653Z,28.33
2022-12-18T02:49:40.249Z,27.10
2022-12-18T02:52:43.822Z,33.47
2022-12-18T02:55:32.129Z,30.08
2022-12-18T02:58:04.493Z,26.98
2022-12-18T03:00:51.469Z,30.02
2022-12-18T03:03:38.369Z,30.85
2022-12-18T03:06:11.391Z,30.20
2022-12-18T03:08:40.248Z,29.73
2022-12-18T03:11:11.553Z,28.50
2022-12-18T03:13:53.526Z,29.38
2022-12-18T03:16:28.213Z,30.75
2022-12-18T03:19:09.389Z,31.45
2022-12-18T03:21:47.826Z,27.95
2022-12-18T03:24:14.497Z,22.63
2022-12-18T03:26:42.387Z,30.60
2022-12-18T03:29:10.905Z,31.33
2022-12-18T03:31:37.981Z,27.95
2022-12-18T03:34:06.112Z,31.20
2022-12-18T03:36:33.007Z,29.88
2022-12-18T03:38:59.728Z,28.65
2022-12-18T03:41:35.580Z,25.45
2022-12-18T03:44:20.643Z,30.00
2022-12-18T03:47:20.427Z,29.17
2022-12-18T03:49:57.709Z,28.00
2022-12-18T03:52:28.336Z,28.63
2022-12-18T03:54:55.357Z,31.15
2022-12-18T03:57:23.631Z,24.75
2022-12-18T03:59:52.127Z,35.13
2022-12-18T04:02:18.969Z,25.65
2022-12-18T04:04:45.737Z,25.40
2022-12-18T04:07:12.550Z,28.58
2022-12-18T04:09:39.626Z,25.60
2022-12-18T04:12:07.018Z,22.85
2022-12-18T04:14:36.559Z,28.10
2022-12-18T04:17:03.845Z,34.38
2022-12-18T04:19:30.552Z,30.15
2022-12-18T04:21:57.281Z,29.23
2022-12-18T04:24:24.022Z,38.30
2022-12-18T04:26:50.678Z,29.70
2022-12-18T04:29:17.401Z,26.83
2022-12-18T04:31:44.115Z,25.88
2022-12-18T04:34:10.800Z,24.88
2022-12-18T04:36:37.903Z,27.55
2022-12-18T04:39:04.610Z,30.08
2022-12-18T04:41:31.309Z,31.63
2022-12-18T04:43:57.996Z,29.67
2022-12-18T04:46:24.775Z,26.65
2022-12-18T04:48:51.476Z,28.40
2022-12-18T04:51:21.997Z,24.73
2022-12-18T04:53:52.814Z,41.03
2022-12-18T04:56:19.506Z,34.05
2022-12-18T04:58:46.247Z,33.28
2022-12-18T05:01:14.062Z,23.90
2022-12-18T05:03:41.226Z,28.38
2022-12-18T05:06:08.280Z,34.13
2022-12-18T05:08:35.074Z,25.60
2022-12-18T05:11:06.368Z,32.00
2022-12-18T05:13:36.820Z,27.30
2022-12-18T05:16:04.071Z,34.35
2022-12-18T05:18:31.823Z,27.48
2022-12-18T05:20:58.523Z,26.95
2022-12-18T05:23:25.246Z,26.77
2022-12-18T05:25:55.978Z,29.73
2022-12-18T05:28:23.255Z,32.47
2022-12-18T05:30:51.638Z,29.20
2022-12-18T05:33:19.406Z,29.20
2022-12-18T05:35:50.862Z,33.72
2022-12-18T05:38:17.500Z,28.27
2022-12-18T05:40:44.591Z,31.83
2022-12-18T05:43:14.249Z,29.50
2022-12-18T05:45:43.251Z,26.27
2022-12-18T05:48:13.738Z,32.25
2022-12-18T05:50:42.533Z,29.23
2022-12-18T05:53:09.233Z,29.73
2022-12-18T05:55:39.872Z,30.48
2022-12-18T05:58:07.146Z,39.97
2022-12-18T06:00:35.740Z,30.73
2022-12-18T06:03:02.905Z,27.50
2022-12-18T06:05:29.621Z,34.60
2022-12-18T06:07:56.317Z,25.60
2022-12-18T06:10:23.084Z,31.48
2022-12-18T06:12:49.770Z,30.00
2022-12-18T06:15:16.467Z,36.83
2022-12-18T06:17:43.677Z,32.40
2022-12-18T06:20:11.372Z,29.13
2022-12-18T06:22:38.140Z,26.92
2022-12-18T06:25:05.673Z,30.23
2022-12-18T06:27:34.491Z,28.17
2022-12-18T06:30:01.655Z,27.30
2022-12-18T06:32:28.397Z,28.10
2022-12-18T06:34:56.353Z,33.80
2022-12-18T06:37:26.954Z,26.23
2022-12-18T06:39:54.364Z,29.90
2022-12-18T06:42:24.865Z,24.73
2022-12-18T06:44:51.857Z,33.78
2022-12-18T06:47:19.228Z,22.75
2022-12-18T06:49:46.041Z,28.80
2022-12-18T06:52:12.754Z,31.58
2022-12-18T06:54:39.478Z,27.40
2022-12-18T06:57:06.156Z,29.67
2022-12-18T06:59:32.844Z,27.75
2022-12-18T07:01:59.645Z,30.67
2022-12-18T07:04:30.685Z,28.52
2022-12-18T07:06:57.443Z,32.63
2022-12-18T07:09:24.648Z,33.47
2022-12-18T07:11:51.857Z,32.70
2022-12-18T07:14:18.637Z,30.70
2022-12-18T07:16:45.481Z,27.02
2022-12-18T07:19:12.191Z,28.02
2022-12-18T07:21:39.002Z,29.17
2022-12-18T07:24:06.363Z,26.05
2022-12-18T07:26:33.051Z,33.72
2022-12-18T07:28:59.742Z,31.02
2022-12-18T07:31:26.617Z,30.20
2022-12-18T07:33:53.474Z,30.08
2022-12-18T07:36:20.432Z,27.92
2022-12-18T07:38:50.095Z,29.00
2022-12-18T07:41:16.892Z,27.77
2022-12-18T07:43:43.902Z,27.30
2022-12-18T07:46:13.505Z,30.75
2022-12-18T07:48:41.213Z,34.17
2022-12-18T07:51:08.029Z,28.02
2022-12-18T07:53:35.293Z,27.92
2022-12-18T07:58:50.855Z,27.73
2022-12-18T08:01:18.021Z,28.38
2022-12-18T08:03:45.328Z,31.25
2022-12-18T08:06:12.054Z,33.35
2022-12-18T08:08:38.896Z,33.05
2022-12-18T08:11:05.650Z,30.17
2022-12-18T08:13:32.398Z,36.78
2022-12-18T08:16:03.937Z,33.63
2022-12-18T08:18:30.735Z,29.95
2022-12-18T08:20:57.426Z,27.60
2022-12-18T08:23:27.550Z,32.63
2022-12-18T08:25:55.512Z,30.55
2022-12-18T08:28:22.248Z,30.67
2022-12-18T08:30:53.141Z,31.83
2022-12-18T08:33:19.937Z,29.05
2022-12-18T08:35:46.613Z,30.73
2022-12-18T08:38:13.316Z,33.15
2022-12-18T08:40:40.049Z,28.98
2022-12-18T08:43:25.309Z,31.67
2022-12-18T08:45:52.070Z,31.05
2022-12-18T08:48:22.141Z,29.73
2022-12-18T08:50:58.922Z,34.70
2022-12-18T08:53:25.710Z,27.70
2022-12-18T08:55:52.648Z,30.70
2022-12-18T08:58:19.687Z,29.60
2022-12-18T09:00:46.450Z,31.73
2022-12-18T09:03:16.818Z,29.08
2022-12-18T09:05:43.835Z,33.90
2022-12-18T09:08:10.519Z,49.67
2022-12-18T09:10:45.440Z,43.17
2022-12-18T09:13:12.828Z,30.50
2022-12-18T09:15:50.778Z,31.85
2022-12-18T09:18:18.182Z,34.35
2022-12-18T09:20:44.925Z,37.92
2022-12-18T09:23:12.038Z,30.98
2022-12-18T09:25:38.897Z,25.90
2022-12-18T09:28:18.635Z,30.08
2022-12-18T09:30:47.540Z,34.35
2022-12-18T09:33:14.707Z,30.23
2022-12-18T09:35:42.126Z,29.65
2022-12-18T09:38:09.833Z,27.23
2022-12-18T09:40:40.797Z,32.58
2022-12-18T09:43:08.306Z,32.03
2022-12-18T09:45:41.838Z,30.63
2022-12-18T09:48:24.396Z,31.63
2022-12-18T09:50:51.235Z,35.80
2022-12-18T09:53:23.686Z,30.60
2022-12-18T09:55:50.497Z,30.35
2022-12-18T09:58:33.122Z,32.10
2022-12-18T10:00:59.981Z,31.00
2022-12-18T10:03:27.545Z,26.20
2022-12-18T10:06:05.756Z,30.23
2022-12-18T10:09:01.627Z,26.50
2022-12-18T10:11:55.116Z,31.00
2022-12-18T10:14:43.679Z,28.77
2022-12-18T10:17:14.800Z,29.08
2022-12-18T10:19:50.115Z,25.38
2022-12-18T10:22:46.336Z,31.20
2022-12-18T10:25:21.233Z,26.58
2022-12-18T10:27:48.092Z,27.38
2022-12-18T10:30:20.893Z,26.75
2022-12-18T10:32:47.657Z,27.95
2022-12-18T10:35:25.359Z,20.67
2022-12-18T10:38:17.482Z,23.27
2022-12-18T10:40:53.179Z,28.67
2022-12-18T10:43:24.031Z,26.20
2022-12-18T10:46:09.201Z,24.02
2022-12-18T10:48:40.617Z,27.88
2022-12-18T10:51:12.939Z,24.70
2022-12-18T10:53:40.826Z,30.63
2022-12-18T10:56:07.844Z,27.45
2022-12-18T10:58:39.530Z,24.63
2022-12-18T11:01:13.868Z,24.73
2022-12-18T11:06:16.485Z,26.13
2022-12-18T11:08:44.664Z,24.80
2022-12-18T11:11:21.991Z,31.98
2022-12-18T11:14:06.885Z,28.73
2022-12-18T11:19:40.755Z,22.52
2022-12-18T11:22:27.540Z,26.42
2022-12-18T11:25:32.194Z,25.65
2022-12-18T11:28:02.498Z,23.42
2022-12-18T11:30:34.170Z,25.17
2022-12-18T11:33:06.694Z,34.65
2022-12-18T11:35:43.620Z,27.67
2022-12-18T11:38:26.552Z,28.90
2022-12-18T11:40:57.654Z,37.35
2022-12-18T11:43:42.879Z,31.73
2022-12-18T11:46:19.543Z,31.08
2022-12-18T11:48:51.443Z,30.92
2022-12-18T11:51:29.660Z,27.98
2022-12-18T11:53:56.338Z,32.63
2022-12-18T11:56:36.614Z,26.50
2022-12-18T11:59:28.886Z,37.22
2022-12-18T12:02:00.559Z,37.30
2022-12-18T12:04:56.318Z,30.95
2022-12-18T12:07:23.136Z,41.05
2022-12-18T12:10:09.215Z,32.97
2022-12-18T12:12:48.878Z,30.08
2022-12-18T12:15:47.266Z,33.90
2022-12-18T12:18:42.554Z,33.83
2022-12-18T12:21:35.579Z,34.35
2022-12-18T12:24:13.622Z,30.00
2022-12-18T12:26:57.782Z,24.75
2022-12-18T12:29:43.106Z,23.65
2022-12-18T12:32:12.666Z,26.27
2022-12-18T12:34:45.635Z,32.22
2022-12-18T12:37:45.759Z,25.90
2022-12-18T12:40:49.087Z,25.20
2022-12-18T12:43:25.649Z,25.20
2022-12-18T12:45:54.535Z,33.55
2022-12-18T12:48:27.523Z,35.33
2022-12-18T12:50:54.747Z,26.35
2022-12-18T12:53:35.648Z,26.65
2022-12-18T12:56:03.290Z,26.67
2022-12-18T12:58:32.239Z,30.50
2022-12-18T13:01:34.350Z,24.13
2022-12-18T13:04:10.418Z,25.27
2022-12-18T13:06:57.604Z,28.88
2022-12-18T13:09:24.557Z,25.63
2022-12-18T13:12:09.843Z,24.02
2022-12-18T13:14:38.832Z,26.35
2022-12-18T13:17:21.533Z,30.98
2022-12-18T13:19:52.624Z,27.15
2022-12-18T13:22:24.089Z,26.23
2022-12-18T13:24:51.098Z,27.48
2022-12-18T13:27:44.012Z,21.60
2022-12-18T13:30:32.394Z,27.63
2022-12-18T13:33:19.104Z,25.23
2022-12-18T13:35:49.009Z,22.92
2022-12-18T13:38:42.480Z,27.85
2022-12-18T13:41:12.015Z,21.52
2022-12-18T13:44:09.262Z,20.02
2022-12-18T13:46:43.694Z,18.98
2022-12-18T13:49:13.250Z,33.22
2022-12-18T13:51:50.442Z,27.52
2022-12-18T13:54:40.766Z,24.80
2022-12-18T13:57:39.419Z,17.75
2022-12-18T14:00:26.263Z,21.85
2022-12-18T14:02:53.191Z,23.05
2022-12-18T14:05:34.451Z,21.85
2022-12-18T14:08:07.559Z,26.63
2022-12-18T14:10:48.627Z,16.73
2022-12-18T14:13:29.930Z,22.33
2022-12-18T14:15:56.739Z,17.05
2022-12-18T14:18:47.113Z,18.70
2022-12-18T14:21:28.252Z,23.02
2022-12-18T14:24:13.710Z,16.92
2022-12-18T14:26:40.820Z,22.95
2022-12-18T14:29:27.685Z,18.30
2022-12-18T14:32:20.576Z,15.98
2022-12-18T14:34:52.134Z,26.25
2022-12-18T14:37:22.304Z,13.48
2022-12-18T14:39:57.606Z,15.77
2022-12-18T14:42:28.799Z,17.45
2022-12-18T14:45:39.125Z,17.80
2022-12-18T14:48:41.996Z,15.20
2022-12-18T14:51:17.941Z,10.80
2022-12-18T14:53:50.707Z,15.20
2022-12-18T14:56:28.596Z,13.75
2022-12-18T14:58:59.735Z,24.00
2022-12-18T15:01:27.701Z,13.43
2022-12-18T15:03:55.345Z,14.80
2022-12-18T15:06:36.051Z,14.40
2022-12-18T15:09:05.637Z,27.70
2022-12-18T15:11:37.400Z,11.95
2022-12-18T15:14:32.126Z,17.10
2022-12-18T15:19:40.587Z,11.68
2022-12-18T15:22:21.618Z,12.40
2022-12-18T15:24:48.812Z,18.55
2022-12-18T15:27:23.238Z,13.93
2022-12-18T15:30:12.473Z,11.80
2022-12-18T15:32:43.904Z,12.07
2022-12-18T15:35:19.328Z,14.60
2022-12-18T15:37:46.180Z,41.67
2022-12-18T15:40:14.988Z,11.85
2022-12-18T15:43:02.997Z,11.77
2022-12-18T15:45:29.877Z,12.65
2022-12-18T15:47:56.646Z,13.90
2022-12-18T15:50:23.534Z,11.05
2022-12-18T15:52:51.102Z,11.25
2022-12-18T15:55:40.886Z,24.58
2022-12-18T15:58:08.951Z,13.40
2022-12-18T16:00:36.373Z,12.52
2022-12-18T16:03:03.635Z,12.88
2022-12-18T16:05:30.531Z,9.20
2022-12-18T16:07:57.364Z,17.10
2022-12-18T16:10:24.725Z,8.77
2022-12-18T16:12:51.452Z,8.15
2022-12-18T16:15:22.622Z,12.70
2022-12-18T16:17:50.929Z,12.43
2022-12-18T16:20:19.281Z,24.38
2022-12-18T16:22:46.912Z,11.10
2022-12-18T16:25:27.519Z,6.68
2022-12-18T16:27:56.011Z,8.18
2022-12-18T16:30:24.545Z,12.27
2022-12-18T16:32:52.689Z,8.93
2022-12-18T16:35:19.454Z,7.63
2022-12-18T16:37:46.270Z,23.25
2022-12-18T16:40:15.118Z,8.75
2022-12-18T16:42:42.485Z,12.25
2022-12-18T16:45:10.203Z,5.07
2022-12-18T16:47:37.000Z,6.20
2022-12-18T16:50:04.583Z,4.25
2022-12-18T16:52:31.345Z,6.85
2022-12-18T16:54:58.075Z,4.10
2022-12-18T16:57:25.364Z,6.10
2022-12-18T16:59:52.482Z,4.47
2022-12-18T17:02:23.896Z,6.93
2022-12-18T17:04:53.114Z,7.45
2022-12-18T17:07:19.826Z,33.60
2022-12-18T17:09:46.554Z,4.57
2022-12-18T17:12:13.303Z,7.13
2022-12-18T17:14:40.110Z,11.95
2022-12-18T17:17:23.723Z,5.65
2022-12-18T17:19:51.503Z,6.38
2022-12-18T17:22:18.240Z,5.75
2022-12-18T17:24:44.950Z,5.65
2022-12-18T17:27:11.728Z,6.30
2022-12-18T17:29:43.892Z,6.70
2022-12-18T17:32:13.418Z,7.22
2022-12-18T17:34:40.650Z,32.38
2022-12-18T17:37:07.485Z,5.25
2022-12-18T17:39:34.431Z,3.88
2022-12-18T17:42:01.301Z,6.55
2022-12-18T17:44:28.088Z,5.40
2022-12-18T17:46:54.988Z,26.48
2022-12-18T17:49:21.772Z,4.75
2022-12-18T17:51:48.766Z,6.35
2022-12-18T17:54:15.500Z,5.75
2022-12-18T17:56:42.271Z,13.70
2022-12-18T17:59:09.532Z,4.65
2022-12-18T18:01:41.143Z,4.22
2022-12-18T18:04:11.184Z,3.38
2022-12-18T18:06:39.003Z,3.55
2022-12-18T18:09:06.279Z,4.93
2022-12-18T18:11:54.191Z,4.72
2022-12-18T18:14:22.720Z,3.17
2022-12-18T18:16:50.443Z,7.80
2022-12-18T18:19:19.638Z,5.45
2022-12-18T18:21:47.282Z,3.70
2022-12-18T18:24:15.250Z,6.68
2022-12-18T18:26:42.093Z,6.25
2022-12-18T18:29:17.527Z,6.90
2022-12-18T18:31:44.664Z,4.68
2022-12-18T18:34:16.140Z,13.77
2022-12-18T18:36:43.189Z,6.05
2022-12-18T18:39:10.455Z,5.65
2022-12-18T18:41:37.248Z,7.97
2022-12-18T18:44:04.302Z,3.20
2022-12-18T18:46:31.183Z,21.98
2022-12-18T18:48:57.888Z,3.70
2022-12-18T18:51:24.630Z,4.32
2022-12-18T18:53:52.156Z,10.45
2022-12-18T18:59:07.176Z,4.78
2022-12-18T19:01:34.039Z,6.32
2022-12-18T19:04:00.925Z,3.08
2022-12-18T19:06:27.964Z,6.55
2022-12-18T19:08:55.385Z,4.43
2022-12-18T19:11:41.222Z,5.72
2022-12-18T19:14:11.464Z,8.35
2022-12-18T19:16:38.385Z,9.23
2022-12-18T19:19:05.373Z,4.38
2022-12-18T19:21:34.597Z,4.03
2022-12-18T19:24:02.402Z,6.25
2022-12-18T19:26:29.297Z,4.07
2022-12-18T19:29:02.232Z,5.20
2022-12-18T19:31:34.870Z,11.57
2022-12-18T19:34:02.943Z,4.05
2022-12-18T19:36:30.087Z,3.83
2022-12-18T19:38:58.493Z,3.83
2022-12-18T19:41:25.631Z,3.65
2022-12-18T19:43:54.335Z,2.83
2022-12-18T19:46:22.297Z,5.68
2022-12-18T19:48:49.345Z,4.68
2022-12-18T19:51:18.056Z,5.20
2022-12-18T19:53:45.409Z,5.13
2022-12-18T19:56:17.171Z,4.10
2022-12-18T19:58:46.928Z,7.22
2022-12-18T20:01:16.444Z,4.75
2022-12-18T20:03:44.588Z,6.05
2022-12-18T20:06:26.711Z,7.82
2022-12-18T20:08:55.566Z,10.25
2022-12-18T20:11:26.881Z,4.10
2022-12-18T20:14:02.233Z,3.35
2022-12-18T20:16:29.264Z,3.92
2022-12-18T20:18:56.887Z,4.20
2022-12-18T20:21:23.837Z,4.30
2022-12-18T20:23:55.643Z,5.57
2022-12-18T20:26:25.402Z,10.25
2022-12-18T20:28:52.586Z,7.00
2022-12-18T20:31:22.866Z,3.25
2022-12-18T20:33:59.612Z,5.57
2022-12-18T20:36:28.293Z,18.63
2022-12-18T20:39:00.545Z,4.93
2022-12-18T20:41:32.787Z,7.18
2022-12-18T20:44:10.935Z,5.45
2022-12-18T20:46:50.358Z,4.80
2022-12-18T20:49:17.183Z,6.32
2022-12-18T20:51:43.844Z,4.90
2022-12-18T20:54:12.036Z,6.00
2022-12-18T20:56:41.949Z,9.57
2022-12-18T20:59:12.337Z,5.53
2022-12-18T21:01:41.523Z,3.53
2022-12-18T21:04:18.338Z,7.63
2022-12-18T21:06:51.336Z,10.90
2022-12-18T21:09:20.522Z,5.22
2022-12-18T21:12:05.997Z,5.57
2022-12-18T21:14:33.134Z,2.67
2022-12-18T21:17:03.310Z,13.98
2022-12-18T21:19:30.515Z,4.93
2022-12-18T21:21:57.571Z,3.47
2022-12-18T21:24:24.922Z,6.43
2022-12-18T21:26:59.722Z,5.32
2022-12-18T21:29:26.785Z,3.05
2022-12-18T21:32:03.022Z,2.30
2022-12-18T21:34:30.587Z,2.67
2022-12-18T21:36:58.463Z,2.90
2022-12-18T21:39:25.942Z,3.13
2022-12-18T21:42:12.555Z,2.78
2022-12-18T21:44:42.183Z,3.33
2022-12-18T21:47:21.560Z,5.97
2022-12-18T21:49:53.031Z,5.28
2022-12-18T21:52:21.633Z,2.42
2022-12-18T21:55:00.723Z,2.50
2022-12-18T21:57:34.828Z,3.58
2022-12-18T22:00:05.033Z,1.70
2022-12-18T22:02:32.754Z,3.00
2022-12-18T22:04:59.839Z,3.25
2022-12-18T22:07:28.958Z,3.15
2022-12-18T22:09:55.674Z,2.63
2022-12-18T22:12:44.504Z,1.67
2022-12-18T22:15:14.728Z,1.63
2022-12-18T22:17:48.947Z,2.40
2022-12-18T22:20:16.021Z,2.60
2022-12-18T22:22:45.582Z,2.75
2022-12-18T22:25:12.370Z,6.90
2022-12-18T22:27:39.036Z,8.90
2022-12-18T22:30:06.545Z,1.35
2022-12-18T22:32:34.011Z,1.63
2022-12-18T22:35:06.812Z,0.98
2022-12-18T22:37:36.106Z,14.32
2022-12-18T22:40:06.107Z,1.60
2022-12-18T22:42:34.126Z,1.75
2022-12-18T22:45:00.839Z,1.20
2022-12-18T22:47:30.098Z,4.90
2022-12-18T22:49:57.525Z,1.88
2022-12-18T22:52:24.994Z,1.40
2022-12-18T22:54:53.158Z,2.10
2022-12-18T22:57:21.585Z,5.78
2022-12-18T22:59:49.159Z,2.80
2022-12-18T23:02:17.361Z,2.28
2022-12-18T23:04:44.867Z,2.33
2022-12-18T23:07:11.687Z,2.67
2022-12-18T23:09:39.530Z,3.28
2022-12-18T23:12:06.588Z,2.97
2022-12-18T23:14:33.336Z,4.20
2022-12-18T23:16:59.990Z,4.15
2022-12-18T23:19:26.731Z,7.10
2022-12-18T23:21:56.636Z,3.10
2022-12-18T23:24:28.406Z,2.85
2022-12-18T23:26:58.065Z,5.57
2022-12-18T23:29:24.743Z,2.10
2022-12-18T23:31:51.510Z,4.20
2022-12-18T23:34:18.234Z,2.05
2022-12-18T23:36:46.835Z,3.10
2022-12-18T23:39:17.441Z,3.47
2022-12-18T23:41:56.674Z,3.55
2022-12-18T23:44:23.575Z,7.25
2022-12-18T23:46:50.411Z,2.38
2022-12-18T23:49:17.174Z,1.95
2022-12-18T23:51:43.859Z,2.75
2022-12-18T23:54:10.890Z,4.78
2022-12-18T23:56:37.748Z,4.05
2022-12-18T23:59:04.554Z,1.33
